Tiempo atmosférico en la estación meteorológica de Puertollano, Ciudad Real (700 m.)



Fecha
DESCASC
Temp. máxima en grados centígrados (hora)
DESCASC
Temp. mínima en grados centígrados (hora)
DESCASC
Temp. media en grados centígrados
DESCASC
Racha de viento máxima en m/sg (hora)
DESCASC
Velocidad máxima media en intervalos de 10 minutos(hora)
DESCASC
Precipitaciones diarias en mm
DESCASC
Precipitaciones de 00:00 a 06:00 en mm
DESCASC
Precipitaciones de 06:00 a 12:00 en mm
DESCASC
Precipitaciones de 12:00 a 18:00 en mm
DESCASC
Precipitaciones de 18:00 a 24:00 en mm
DESCASC
22-01-2020 11.4 (15:20) 3 (07:20) 7.2 7.78 (17:00) 4.72 (17:00) 0.2 0.2 0 0 0
21-01-2020 6.3 (16:00) 2 (09:10) 4.2 13.33 (07:20) 7.22 (07:20) 4.6 0 4.6 0 0
20-01-2020 6.1 (17:50) 0.9 (07:00) 3.5 12.78 (17:10) 6.94 (17:10) 1 0 0.2 0 0.8
19-01-2020 9.9 (00:00) 1.9 (00:00) 5.9 16.39 (17:00) 7.78 (15:20) 9 0.6 1 2.8 4.6
18-01-2020 11.3 (23:00) 5.7 (00:00) 8.5 11.11 (23:30) 4.44 (09:20) 3.2 0 2 0.4 0.8
17-01-2020 14.7 (13:50) 6.6 (00:00) 10.6 8.06 (14:10) 4.17 (14:10) 0 0 0 0 0
16-01-2020 16.7 (15:30) 4.1 (00:00) 10.4 6.39 (16:00) 3.89 (16:40) 0 0 0 0 0
15-01-2020 15.6 (15:00) 3.9 (00:00) 9.8 7.22 (15:20) 3.61 (14:30) 0 0 0 0 0
14-01-2020 11.4 (15:10) -2.9 (-00:0) 4.2 4.72 (16:40) 2.5 (15:20) 0 0 0 0 0
13-01-2020 12.8 (15:50) -3.2 (-00:0) 4.8 5.83 (17:10) 2.78 (17:10) 0 0 0 0 0
12-01-2020 13.4 (15:40) -2.2 (-00:0) 5.6 4.17 (17:10) 2.22 (17:10) 0 0 0 0 0
11-01-2020 11.9 (15:30) -0.6 (-00:0) 5.6 8.61 (02:40) 4.72 (01:50) 0 0 0 0 0
10-01-2020 11.2 (15:30) 5 (00:00) 8.1 10.83 (13:50) 5.83 (14:20) 0 0 0 0 0
09-01-2020 15.5 (15:00) 0.1 (00:00) 7.8 5.83 (16:00) 3.33 (16:00) 0 0 0 0 0
08-01-2020 17.4 (16:10) -1.2 (-00:0) 8.1 4.17 (17:00) 2.5 (17:00) 0 0 0 0 0
07-01-2020 16.7 (16:40) -1 (-00:0) 7.9 3.89 (13:20) 2.5 (14:00) 0 0 0 0 0
06-01-2020 15.3 (16:50) -2 (-00:0) 6.7 4.17 (17:50) 2.5 (17:50) 0 0 0 0 0
05-01-2020 10.4 (17:00) -1.7 (-00:0) 4.3 4.17 (16:40) 2.5 (16:50) 0 0 0 0 0
04-01-2020 9.2 (15:10) 1.7 (00:00) 5.4 6.67 (05:40) 3.61 (03:40) 0 0 0 0 0
03-01-2020 9.6 (16:40) 0.8 (00:00) 5.2 5 (23:59) 2.78 (20:10) 0 0 0 0 0
02-01-2020 17.1 (16:30) -0.9 (-00:0) 8.1 2.78 (14:40) 1.67 (14:40) 0 0 0 0 0
01-01-2020 13.4 (16:30) -1.5 (-00:0) 5.9 3.33 (11:50) 1.39 (13:30) 0 0 0 0 0
31-12-2019 8.7 (17:00) -0.1 (00:00) 4.3 3.89 (03:40) 1.94 (03:30) 0 0 0 0 0
30-12-2019 -- (--) -- (--) -- -- (--) -- (--) -- 0 0 0 --
29-12-2019 15.7 (16:20) -1 (-00:0) 7.3 3.61 (17:00) 2.22 (17:00) 0 0 0 0 0
28-12-2019 19.1 (16:30) 1.6 (00:00) 10.4 4.72 (18:00) 3.06 (17:50) 0 0 0 0 0
27-12-2019 16.1 (16:10) 3.7 (00:00) 9.9 4.17 (02:50) 3.06 (17:30) 0 0 0 0 0

Gráficas

Temp. máximas Temp. mínimas Temp. medias Precipitaciones Rachas de viento máximas Velocidades máximas media en intervalos de 10 minutos

Datos horarios

Fecha y hora oficial Temperatura (ºC) Velocidad del viento (km/h) Dirección del viento Racha (km/h) Dirección de racha Precipitación (mm) Presión (hPa) Tendencia (hPa) Humedad (%)
2020-01-25 23:00:00 7.6 5 Noroeste 9 Noroeste 0 -- -- 91
2020-01-25 22:00:00 7.6 0 Calma 5 Sudoeste 0 -- -- 90
2020-01-25 21:00:00 7.7 3 Sudoeste 8 Sur 0 -- -- 89
2020-01-25 20:00:00 7.7 4 Sudoeste 13 Sur 0 -- -- 89
2020-01-25 19:00:00 7.9 3 Sur 15 Sudeste 0 -- -- 86
2020-01-25 18:00:00 8.3 9 Sur 16 Sur 0 -- -- 84
2020-01-25 17:00:00 8.5 6 Sur 22 Sudeste 0 -- -- 86
2020-01-25 16:00:00 8.9 6 Sur 15 Sudeste 0 -- -- 83
2020-01-25 15:00:00 9.2 10 Sur 23 Sudeste 0 -- -- 82
2020-01-25 14:00:00 9 12 Sur 27 Sur 0 -- -- 87
2020-01-25 13:00:00 8.4 9 Sudeste 18 Sudeste 0.4 -- -- 89
2020-01-25 12:00:00 8.5 8 Sudeste 22 Sudeste 0 -- -- 89
2020-01-25 11:00:00 8.4 12 Este 21 Este 0 -- -- 89
2020-01-25 10:00:00 8 9 Sudeste 17 Este 0.2 -- -- 89
2020-01-25 09:00:00 8.1 5 Sudeste 14 Este 0 -- -- 87
2020-01-25 08:00:00 8.3 6 Sudeste 17 Este 0 -- -- 85
2020-01-25 07:00:00 8.2 9 Este 16 Este 0 -- -- 86
2020-01-25 06:00:00 8.3 6 Sudeste 14 Sudeste 0 -- -- 84
2020-01-25 05:00:00 8.2 3 Noroeste 17 Sudeste 0 -- -- 84
2020-01-25 04:00:00 8.5 8 Sudeste 24 Sur 0 -- -- 83
2020-01-25 03:00:00 8.7 14 Sur 26 Sudeste 0 -- -- 83
2020-01-25 02:00:00 8.9 12 Sudeste 23 Sudeste 0 -- -- 80
2020-01-25 01:00:00 8.9 8 Sudeste 16 Sur 0 -- -- 82
2020-01-25 00:00:00 8.8 8 Sudeste 19 Sudeste 0 -- -- 83
2020-01-24 23:00:00 9.1 9 Este 17 Este 0 -- -- 82
2020-01-24 22:00:00 9.5 8 Sudeste 15 Sudeste 0 -- -- 79
2020-01-24 21:00:00 9.9 7 Sudeste 14 Este 0 -- -- 76
2020-01-24 20:00:00 10.2 7 Sudeste 14 Este 0 -- -- 74
2020-01-24 19:00:00 10.5 5 Sudeste 13 Este 0 -- -- 74
2020-01-24 18:00:00 11.1 4 Sudeste 12 Este 0 -- -- 70
2020-01-24 17:00:00 11.6 4 Sudeste 21 Sur 0 -- -- 67
2020-01-24 16:00:00 12.3 7 Sur 20 Sur 0 -- -- 64
2020-01-24 15:00:00 12.4 8 Sur 16 Sur 0 -- -- 65
2020-01-24 14:00:00 11 9 Sur 21 Sudeste 0.2 -- -- 70
2020-01-24 13:00:00 11.2 9 Sur 21 Sur 0 -- -- 77
2020-01-24 12:00:00 10 8 Sudeste 19 Sur 0 -- -- 79
2020-01-24 11:00:00 8.5 12 Este 21 Este 0 -- -- 84
2020-01-24 10:00:00 7.9 8 Sudeste 16 Sudeste 0 -- -- 87
2020-01-24 09:00:00 7.4 9 Sudeste 17 Este 0 -- -- 87
2020-01-24 08:00:00 7.9 8 Sudeste 31 Este 0 -- -- 82
2020-01-24 07:00:00 7.6 7 Este 20 Sudeste 0 -- -- 87
2020-01-24 06:00:00 7.5 8 Sudeste 17 Este 0 -- -- 88
2020-01-24 05:00:00 7.4 4 Sudeste 15 Sudeste 0 -- -- 88
2020-01-24 04:00:00 7.6 9 Sudeste 21 Sur 0.8 -- -- 86
2020-01-24 03:00:00 7.9 4 Sudeste 18 Sudeste 0.8 -- -- 84
2020-01-24 02:00:00 8.2 6 Sudeste 17 Este 0.4 -- -- 82
2020-01-24 01:00:00 8.4 9 Este 17 Este 0 -- -- 80
2020-01-24 00:00:00 8.5 6 Este 13 Este 0 -- -- 81
2020-01-23 23:00:00 8.4 9 Este 12 Este 0 -- -- 81
2020-01-23 22:00:00 7.5 4 Sudoeste 8 Sudoeste 0 -- -- 81
2020-01-23 21:00:00 8.8 0 Calma 9 Este 0 -- -- 76
2020-01-23 20:00:00 10.1 5 Sudeste 16 Este 0 -- -- 67
2020-01-23 19:00:00 9.8 4 Sudeste 18 Sur 0 -- -- 69
2020-01-23 18:00:00 10.2 8 Sur 14 Sur 0 -- -- 67
2020-01-23 17:00:00 10.6 6 Sudoeste 15 Sur 0 -- -- 70
2020-01-23 16:00:00 10.7 11 Sudoeste 21 Sur 0 -- -- 72
2020-01-23 15:00:00 11.7 14 Sur 32 Sur 0 -- -- 64
2020-01-23 14:00:00 10.8 9 Sur 23 Este 0 -- -- 67
2020-01-23 13:00:00 9.9 11 Sudeste 22 Este 0 -- -- 73
2020-01-23 12:00:00 8.6 6 Sudeste 16 Sudeste 0 -- -- 80
2020-01-23 11:00:00 7.1 9 Sudeste 18 Este 0 -- -- 82
2020-01-23 10:00:00 6.7 8 Sudeste 15 Sudeste 0 -- -- 82
2020-01-23 09:00:00 5.9 6 Sudeste 12 Este 0 -- -- 84
2020-01-23 08:00:00 6.7 4 Sudeste 15 Este 0 -- -- 80
2020-01-23 07:00:00 6.4 4 Sudeste 12 Sudeste 0 -- -- 85
2020-01-23 06:00:00 6 4 Sudeste 11 Sudeste 0 -- -- 85
2020-01-23 05:00:00 6.1 5 Sudeste 13 Este 0 -- -- 84
2020-01-23 04:00:00 6.3 5 Sudeste 14 Sudeste 0 -- -- 84
2020-01-23 03:00:00 6.1 8 Sudeste 13 Sudeste 0 -- -- 83
2020-01-23 02:00:00 6.6 3 Sudeste 17 Este 0 -- -- 81
2020-01-23 01:00:00 7.2 8 Este 15 Sur 0 -- -- 80
2020-01-23 00:00:00 8.1 6 Sudeste 13 Sudeste 0 -- -- 77
2020-01-22 23:00:00 7.6 5 Sudeste 15 Este 0 -- -- 80
2020-01-22 22:00:00 8 9 Este 15 Este 0 -- -- 77
2020-01-22 21:00:00 8 4 Sudeste 14 Este 0 -- -- 77
2020-01-22 20:00:00 8.7 11 Sudeste 15 Este 0 -- -- 75
2020-01-22 19:00:00 9 8 Sudeste 16 Sudeste 0 -- -- 74
2020-01-22 18:00:00 10 7 Sudeste 26 Este 0 -- -- 70
2020-01-22 17:00:00 10.7 17 Este 28 Este 0 -- -- 67
2020-01-22 16:00:00 11.4 8 Sudeste 18 Este 0 -- -- 66
2020-01-22 15:00:00 11.2 9 Sudeste 18 Este 0 -- -- 65
2020-01-22 14:00:00 10.7 8 Sudeste 19 Sudeste 0 -- -- 71
2020-01-22 13:00:00 8.7 8 Este 15 Este 0 -- -- 78
2020-01-22 12:00:00 8 8 Sudeste 15 Este 0 -- -- 87
2020-01-22 11:00:00 5.3 8 Sudeste 15 Sudeste 0 -- -- 93
2020-01-22 10:00:00 3.9 8 Este 16 Este 0 -- -- 94
2020-01-22 09:00:00 3.5 6 Sudeste 17 Este 0 -- -- 94
2020-01-22 08:00:00 3.4 10 Este 18 Este 0 -- -- 94
2020-01-22 07:00:00 3.1 8 Este 17 Este 0 -- -- 93
2020-01-22 06:00:00 3.5 9 Este 15 Este 0 -- -- 93
2020-01-22 05:00:00 3.7 9 Este 13 Este 0 -- -- 92
2020-01-22 04:00:00 3.7 5 Sudeste 13 Sudeste 0 -- -- 92
2020-01-22 03:00:00 3.6 7 Sudeste 16 Este 0.2 -- -- 91
2020-01-22 02:00:00 3.6 8 Sudeste 17 Este 0 -- -- 90
2020-01-22 01:00:00 3.8 9 Sudeste 18 Este 0 -- -- 89
2020-01-22 00:00:00 4.2 9 Sudeste 23 Este 0 -- -- 88
2020-01-21 23:00:00 4.6 13 Este 24 Este 0 -- -- 87
2020-01-21 22:00:00 5.3 11 Este 25 Sudeste 0 -- -- 87
2020-01-21 21:00:00 5.3 12 Este 28 Este 0 -- -- 86
2020-01-21 20:00:00 5.2 12 Sudeste 30 Este 0 -- -- 86
2020-01-21 19:00:00 5.5 12 Este 33 Este 0 -- -- 86
2020-01-21 18:00:00 6 15 Este 37 Nordeste 0 -- -- 85
2020-01-21 17:00:00 6.1 16 Nordeste 34 Este 0 -- -- 85
2020-01-21 16:00:00 6.3 16 Nordeste 34 Nordeste 0 -- -- 85
2020-01-21 15:00:00 5.8 6 Sur 27 Sudeste 0 -- -- 85
2020-01-21 14:00:00 5.8 11 Este 35 Nordeste 0 -- -- 81
2020-01-21 13:00:00 5.7 10 Este 27 Nordeste 0 -- -- 82
2020-01-21 12:00:00 4.6 4 Oeste 19 Norte 0 -- -- 88
2020-01-21 11:00:00 3.3 11 Nordeste 34 Nordeste 0.6 -- -- 90
2020-01-21 10:00:00 2.1 6 Noroeste 29 Nordeste 1.8 -- -- 88
2020-01-21 09:00:00 2.4 13 Nordeste 30 Nordeste 2.2 -- -- 83
2020-01-21 08:00:00 4 21 Norte 48 Nordeste 0 -- -- 76
2020-01-21 07:00:00 4.1 19 Nordeste 38 Nordeste 0 -- -- 75
2020-01-21 06:00:00 4.4 16 Nordeste 41 Nordeste 0 -- -- 78
2020-01-21 05:00:00 4.5 9 Este 38 Este 0 -- -- 80
2020-01-21 04:00:00 4.8 10 Este 36 Nordeste 0 -- -- 76
2020-01-21 03:00:00 4.6 5 Nordeste 41 Nordeste 0 -- -- 74
2020-01-21 02:00:00 4.9 19 Nordeste 43 Nordeste 0 -- -- 77
2020-01-21 01:00:00 4.9 15 Nordeste 39 Nordeste 0 -- -- 79
2020-01-21 00:00:00 4.5 15 Nordeste 46 Norte 0.2 -- -- 82
2020-01-20 23:00:00 4 19 Nordeste 36 Nordeste 0 -- -- 83
2020-01-20 22:00:00 4.2 17 Nordeste 37 Nordeste 0 -- -- 85
2020-01-20 21:00:00 4.4 16 Nordeste 36 Norte 0.2 -- -- 84
2020-01-20 20:00:00 4.5 15 Nordeste 32 Nordeste 0.4 -- -- 84
2020-01-20 19:00:00 5.2 14 Nordeste 35 Nordeste 0 -- -- 81
2020-01-20 18:00:00 6.1 18 Nordeste 46 Nordeste 0 -- -- 77
2020-01-20 17:00:00 5.7 21 Nordeste 41 Nordeste 0 -- -- 77
2020-01-20 16:00:00 4.4 17 Nordeste 44 Nordeste 0 -- -- 76
2020-01-20 15:00:00 4.5 13 Nordeste 33 Nordeste 0 -- -- 69
2020-01-20 14:00:00 4.5 19 Nordeste 45 Nordeste 0 -- -- 64
2020-01-20 13:00:00 3.8 17 Nordeste 46 Nordeste 0 -- -- 69
2020-01-20 12:00:00 2.3 19 Nordeste 37 Nordeste 0 -- -- 75
2020-01-20 11:00:00 1.9 16 Nordeste 40 Nordeste 0 -- -- 76
2020-01-20 10:00:00 1.4 19 Nordeste 37 Norte 0 -- -- 75
2020-01-20 09:00:00 1.6 15 Nordeste 43 Nordeste 0 -- -- 70
2020-01-20 08:00:00 1.7 16 Nordeste 43 Norte 0 -- -- 75
2020-01-20 07:00:00 0.9 16 Nordeste 44 Nordeste 0.2 -- -- 82
2020-01-20 06:00:00 2.5 13 Nordeste 36 Norte 0 -- -- 64
2020-01-20 05:00:00 2.5 18 Nordeste 45 Norte 0 -- -- 63
2020-01-20 04:00:00 2.5 11 Nordeste 36 Este 0 -- -- 66
2020-01-20 03:00:00 2.6 16 Norte 34 Norte 0 -- -- 66
2020-01-20 02:00:00 2.7 11 Nordeste 38 Norte 0 -- -- 72
2020-01-20 01:00:00 2.2 13 Norte 31 Nordeste 0 -- -- 82
2020-01-20 00:00:00 1.9 10 Norte 33 Norte 0.2 -- -- 88
2020-01-19 23:00:00 2.4 15 Nordeste 41 Norte 0.2 -- -- 90
2020-01-19 22:00:00 3 17 Nordeste 40 Nordeste 0.2 -- -- 91
2020-01-19 21:00:00 3.1 24 Nordeste 50 Nordeste 0.8 -- -- 92
2020-01-19 20:00:00 2.7 18 Nordeste 44 Nordeste 2.2 -- -- 92
2020-01-19 19:00:00 3.6 20 Nordeste 43 Norte 1 -- -- 91
2020-01-19 18:00:00 3.8 15 Nordeste 45 Norte 1.6 -- -- 89
2020-01-19 17:00:00 4.7 26 Nordeste 59 Nordeste 1 -- -- 83
2020-01-19 16:00:00 7.6 21 Norte 53 Norte 0 -- -- 69
2020-01-19 15:00:00 7.3 24 Norte 44 Norte 0 -- -- 77
2020-01-19 14:00:00 6.4 13 Norte 27 Norte 0.2 -- -- 86
2020-01-19 13:00:00 6.5 14 Norte 30 Norte 0 -- -- 85
2020-01-19 12:00:00 6.1 17 Norte 31 Noroeste 1 -- -- 86
2020-01-19 11:00:00 6.2 14 Noroeste 25 Noroeste 0 -- -- 89
2020-01-19 10:00:00 5.9 12 Noroeste 20 Noroeste 0 -- -- 92
2020-01-19 09:00:00 5.1 4 Oeste 13 Noroeste 0 -- -- 94
2020-01-19 08:00:00 5.6 8 Noroeste 21 Oeste 0 -- -- 94
2020-01-19 07:00:00 6 11 Noroeste 24 Noroeste 0 -- -- 93
2020-01-19 06:00:00 6.5 10 Noroeste 24 Noroeste 0 -- -- 92
2020-01-19 05:00:00 7.1 11 Noroeste 21 Noroeste 0 -- -- 92
2020-01-19 04:00:00 7.6 6 Oeste 27 Noroeste 0 -- -- 92
2020-01-19 03:00:00 7.8 12 Noroeste 23 Noroeste 0.6 -- -- 89
2020-01-19 02:00:00 8.1 8 Noroeste 18 Oeste 0 -- -- 90
2020-01-19 01:00:00 8.3 8 Oeste 24 Oeste 0 -- -- 88
2020-01-19 00:00:00 9.9 11 Oeste 40 Oeste 0.6 -- -- 88
2020-01-18 23:00:00 11.3 14 Oeste 27 Sudoeste 0 -- -- 91
2020-01-18 22:00:00 10.5 4 Noroeste 15 Oeste 0 -- -- 93
2020-01-18 21:00:00 10.7 4 Oeste 14 Oeste 0 -- -- 92
2020-01-18 20:00:00 11.1 3 Noroeste 12 Sudoeste 0 -- -- 92
2020-01-18 19:00:00 10.8 4 Noroeste 10 Noroeste 0.2 -- -- 91
2020-01-18 18:00:00 10.6 3 Noroeste 17 Sudoeste 0 -- -- 89
2020-01-18 17:00:00 10.7 5 Sur 14 Sudoeste 0 -- -- 89
2020-01-18 16:00:00 10.6 6 Sudoeste 13 Sudoeste 0 -- -- 89
2020-01-18 15:00:00 10.3 4 Sudoeste 18 Sudoeste 0 -- -- 90
2020-01-18 14:00:00 9.7 9 Sur 19 Sur 0 -- -- 93
2020-01-18 13:00:00 9.2 6 Sudeste 18 Sudeste 0.4 -- -- 92
2020-01-18 12:00:00 9.3 7 Sudeste 17 Sudeste 0 -- -- 94
2020-01-18 11:00:00 7.9 8 Sudeste 15 Este 0 -- -- 93
2020-01-18 10:00:00 7.8 8 Sudeste 21 Este 0.4 -- -- 93
2020-01-18 09:00:00 7.3 11 Este 17 Este 0.4 -- -- 93
2020-01-18 08:00:00 7 6 Sudeste 17 Este 0.8 -- -- 93
2020-01-18 07:00:00 6.6 2 Sudoeste 14 Este 0.4 -- -- 91
2020-01-18 06:00:00 6.3 4 Sudoeste 9 Noroeste 0 -- -- 91
2020-01-18 05:00:00 6.1 3 Oeste 8 Sudoeste 0 -- -- 90
2020-01-18 04:00:00 6 2 Sudoeste 7 Noroeste 0 -- -- 90
2020-01-18 03:00:00 6 5 Sudoeste 8 Sudoeste 0 -- -- 88
2020-01-18 02:00:00 6.1 4 Noroeste 7 Noroeste 0 -- -- 87
2020-01-18 01:00:00 6.8 4 Sudoeste 13 Este 0 -- -- 84
2020-01-18 00:00:00 8 10 Este 15 Este 0 -- -- 85
2020-01-17 23:00:00 7.2 4 Sudoeste 10 Noroeste 0 -- -- 84
2020-01-17 22:00:00 7.1 4 Sudoeste 9 Noroeste 0 -- -- 82
2020-01-17 21:00:00 7.8 2 Oeste 6 Sudoeste 0 -- -- 80
2020-01-17 20:00:00 9.3 4 Sudoeste 10 Norte 0 -- -- 76
2020-01-17 19:00:00 10.5 4 Noroeste 13 Norte 0 -- -- 74
2020-01-17 18:00:00 11.9 10 Norte 19 Noroeste 0 -- -- 68
2020-01-17 17:00:00 13.2 11 Noroeste 18 Noroeste 0 -- -- 63
2020-01-17 16:00:00 14.1 8 Oeste 22 Noroeste 0 -- -- 61
2020-01-17 15:00:00 13.6 12 Noroeste 29 Noroeste 0 -- -- 62
2020-01-17 14:00:00 14.6 9 Noroeste 22 Oeste 0 -- -- 60
2020-01-17 13:00:00 13.8 11 Oeste 25 Oeste 0 -- -- 64
2020-01-17 12:00:00 13 9 Oeste 20 Sudoeste 0 -- -- 72
2020-01-17 11:00:00 11.6 11 Oeste 18 Oeste 0 -- -- 82
2020-01-17 10:00:00 9.2 4 Noroeste 10 Norte 0 -- -- 84
2020-01-17 09:00:00 8.4 3 Noroeste 8 Noroeste 0 -- -- 82
2020-01-17 08:00:00 8.3 5 Noroeste 12 Noroeste 0 -- -- 80
2020-01-17 07:00:00 8.9 5 Noroeste 16 Oeste 0 -- -- 77
2020-01-17 06:00:00 9.4 3 Noroeste 13 Sudoeste 0 -- -- 68
2020-01-17 05:00:00 9.9 7 Sudoeste 20 Oeste 0 -- -- 62
2020-01-17 04:00:00 9.5 5 Norte 10 Norte 0 -- -- 52
2020-01-17 03:00:00 9.2 2 Oeste 9 Noroeste 0 -- -- 52
2020-01-17 02:00:00 8.4 2 Noroeste 10 Noroeste 0 -- -- 53
2020-01-17 01:00:00 7.6 3 Noroeste 12 Oeste 0 -- -- 58
2020-01-17 00:00:00 8.3 4 Noroeste 6 Oeste 0 -- -- 54
2020-01-16 23:00:00 9.1 3 Noroeste 14 Sudoeste 0 -- -- 52
2020-01-16 22:00:00 9.1 4 Sudoeste 14 Sudoeste 0 -- -- 55
2020-01-16 21:00:00 10.4 6 Sudoeste 12 Sudoeste 0 -- -- 54
2020-01-16 20:00:00 10.7 0 Calma 10 Sudoeste 0 -- -- 54
2020-01-16 19:00:00 12 3 Sudoeste 13 Sudoeste 0 -- -- 52
2020-01-16 18:00:00 13.8 7 Sudoeste 23 Sur 0 -- -- 48
2020-01-16 17:00:00 16.2 12 Sudoeste 22 Sur 0 -- -- 40
2020-01-16 16:00:00 16.7 13 Sudoeste 23 Sudoeste 0 -- -- 41
2020-01-16 15:00:00 16.4 11 Sudoeste 22 Oeste 0 -- -- 42
2020-01-16 14:00:00 15.4 9 Sudoeste 19 Sudoeste 0 -- -- 48
2020-01-16 13:00:00 14.8 5 Sudoeste 16 Este 0 -- -- 49
2020-01-16 12:00:00 13.1 6 Sudeste 15 Este 0 -- -- 64
2020-01-16 11:00:00 9.2 3 Sudeste 6 Sudeste 0 -- -- 87
2020-01-16 10:00:00 5 0 Calma 6 Sudoeste 0 -- -- 88
2020-01-16 09:00:00 4.5 0 Calma 6 Sudeste 0 -- -- 84
2020-01-16 08:00:00 6.5 2 Sur 15 Este 0 -- -- 81
2020-01-16 07:00:00 7.4 7 Este 15 Este 0 -- -- 80
2020-01-16 06:00:00 8.1 6 Sudeste 13 Este 0 -- -- 80
2020-01-16 05:00:00 7.3 5 Este 11 Este 0 -- -- 83
2020-01-16 04:00:00 7.4 4 Sudeste 6 Este 0 -- -- 83
2020-01-16 03:00:00 7.1 2 Sur 6 Sudoeste 0 -- -- 81
2020-01-16 02:00:00 7.4 0 Calma 5 Sudoeste 0 -- -- 79
2020-01-16 01:00:00 7.6 0 Calma 4 Sudoeste 0 -- -- 78
2020-01-16 00:00:00 9.2 5 Oeste 9 Noroeste 0 -- -- 73
2020-01-15 23:00:00 10.2 3 Sudeste 6 Sudeste 0 -- -- 69
2020-01-15 22:00:00 10.3 3 Norte 8 Este 0 -- -- 68
2020-01-15 21:00:00 11 4 Sur 13 Este 0 -- -- 65
2020-01-15 20:00:00 11.6 6 Sudeste 15 Sudeste 0 -- -- 62
2020-01-15 19:00:00 12.2 3 Sudoeste 10 Sudoeste 0 -- -- 60
2020-01-15 18:00:00 12.9 4 Oeste 12 Sudoeste 0 -- -- 54
2020-01-15 17:00:00 13.6 3 Oeste 19 Sudoeste 0 -- -- 51
2020-01-15 16:00:00 14.7 13 Sudoeste 26 Sudoeste 0 -- -- 48
2020-01-15 15:00:00 15.6 10 Sudoeste 24 Sudoeste 0 -- -- 49
2020-01-15 14:00:00 14.5 10 Sudoeste 24 Sudoeste 0 -- -- 53
2020-01-15 13:00:00 13.1 12 Sudoeste 23 Sudoeste 0 -- -- 58
2020-01-15 12:00:00 10.9 3 Sudoeste 17 Este 0 -- -- 67
2020-01-15 11:00:00 9.4 10 Este 18 Este 0 -- -- 77
2020-01-15 10:00:00 7.2 7 Sudeste 17 Sudeste 0 -- -- 83
2020-01-15 09:00:00 5.4 7 Este 16 Este 0 -- -- 85
2020-01-15 08:00:00 5.1 7 Sudeste 15 Este 0 -- -- 85
2020-01-15 07:00:00 5 7 Sudeste 15 Este 0 -- -- 85
2020-01-15 06:00:00 4.7 6 Sudeste 14 Sudeste 0 -- -- 85
2020-01-15 05:00:00 6 4 Sudeste 16 Este 0 -- -- 83
2020-01-15 04:00:00 5 5 Sudeste 9 Este 0 -- -- 85
2020-01-15 03:00:00 4.2 0 Calma 7 Este 0 -- -- 84
2020-01-15 02:00:00 4.1 0 Calma 10 Sur 0 -- -- 83
2020-01-15 01:00:00 4.6 3 Norte 10 Sur 0 -- -- 82
2020-01-15 00:00:00 6.1 4 Sudeste 12 Sudeste 0 -- -- 80
2020-01-14 23:00:00 6.8 5 Sudeste 14 Este 0 -- -- 76
2020-01-14 22:00:00 7.3 6 Sudeste 14 Este 0 -- -- 75
2020-01-14 21:00:00 7 4 Este 11 Sudeste 0 -- -- 76
2020-01-14 20:00:00 6.9 0 Calma 7 Noroeste 0 -- -- 74
2020-01-14 19:00:00 7.8 6 Noroeste 8 Noroeste 0 -- -- 71
2020-01-14 18:00:00 9.7 3 Sudoeste 12 Oeste 0 -- -- 64
2020-01-14 17:00:00 10.8 6 Oeste 17 Oeste 0 -- -- 58
2020-01-14 16:00:00 11 5 Oeste 17 Sudoeste 0 -- -- 58
2020-01-14 15:00:00 11.3 8 Oeste 15 Sudoeste 0 -- -- 59
2020-01-14 14:00:00 10.3 4 Sudoeste 17 Sudoeste 0 -- -- 64
2020-01-14 13:00:00 8.6 5 Oeste 13 Oeste 0 -- -- 77
2020-01-14 12:00:00 6.4 4 Sudoeste 6 Sudoeste 0 -- -- 93
2020-01-14 11:00:00 2.1 0 Calma 7 Sudoeste 0 -- -- 96
2020-01-14 10:00:00 -1.8 2 Sudoeste 6 Sudoeste 0 -- -- 94
2020-01-14 09:00:00 -2.6 0 Calma 5 Noroeste 0 -- -- 93
2020-01-14 08:00:00 -2.4 0 Calma 5 Noroeste 0 -- -- 93
2020-01-14 07:00:00 -2.2 2 Sudoeste 6 Noroeste 0 -- -- 92
2020-01-14 06:00:00 -2 2 Sudoeste 5 Sur 0 -- -- 92
2020-01-14 05:00:00 -1.8 0 Calma 4 Noroeste 0 -- -- 91
2020-01-14 04:00:00 -1.4 0 Calma 6 Sudoeste 0 -- -- 90
2020-01-14 03:00:00 -1.1 3 Noroeste 6 Noroeste 0 -- -- 90
2020-01-14 02:00:00 -0.6 5 Noroeste 8 Sudoeste 0 -- -- 88
2020-01-14 01:00:00 0.3 0 Calma 7 Sudoeste 0 -- -- 86
2020-01-14 00:00:00 2.1 3 Sudoeste 6 Sudoeste 0 -- -- 85
2020-01-13 23:00:00 2.3 0 Calma 8 Sudoeste 0 -- -- 83
2020-01-13 22:00:00 3.5 3 Noroeste 5 Noroeste 0 -- -- 81
2020-01-13 21:00:00 4.9 0 Calma 8 Noroeste 0 -- -- 76
2020-01-13 20:00:00 6.1 4 Noroeste 6 Noroeste 0 -- -- 75
2020-01-13 19:00:00 8 4 Oeste 12 Noroeste 0 -- -- 66
2020-01-13 18:00:00 9.6 9 Noroeste 21 Noroeste 0 -- -- 63
2020-01-13 17:00:00 11.9 8 Noroeste 14 Noroeste 0 -- -- 58
2020-01-13 16:00:00 12.5 7 Oeste 14 Oeste 0 -- -- 54
2020-01-13 15:00:00 12.1 9 Sudoeste 20 Sudoeste 0 -- -- 58
2020-01-13 14:00:00 10.2 4 Noroeste 10 Oeste 0 -- -- 62
2020-01-13 13:00:00 8.8 0 Calma 6 Sudoeste 0 -- -- 76
2020-01-13 12:00:00 5.4 4 Sudoeste 7 Sudoeste 0 -- -- 90
2020-01-13 11:00:00 2.1 3 Sudoeste 7 Noroeste 0 -- -- 94
2020-01-13 10:00:00 -1.8 3 Noroeste 6 Noroeste 0 -- -- 93
2020-01-13 09:00:00 -2.6 3 Sudoeste 6 Noroeste 0 -- -- 92
2020-01-13 08:00:00 -3.2 3 Noroeste 6 Sudoeste 0 -- -- 91
2020-01-13 07:00:00 -2.6 0 Calma 4 Oeste 0 -- -- 91
2020-01-13 06:00:00 -2.6 0 Calma 4 Oeste 0 -- -- 90
2020-01-13 05:00:00 -1.9 0 Calma 5 Noroeste 0 -- -- 90
2020-01-13 04:00:00 -1.4 0 Calma 6 Noroeste 0 -- -- 89
2020-01-13 03:00:00 -1.2 3 Noroeste 6 Sudoeste 0 -- -- 87
2020-01-13 02:00:00 -0.3 4 Sudoeste 8 Sudoeste 0 -- -- 86
2020-01-13 01:00:00 0.6 2 Noroeste 8 Noroeste 0 -- -- 85
2020-01-13 00:00:00 0.9 2 Noroeste 6 Sudoeste 0 -- -- 83
2020-01-12 23:00:00 1.2 0 Calma 8 Sudoeste 0 -- -- 80
2020-01-12 22:00:00 2 3 Noroeste 7 Sudoeste 0 -- -- 78
2020-01-12 21:00:00 4.3 0 Calma 4 Noroeste 0 -- -- 72
2020-01-12 20:00:00 6.3 2 Oeste 8 Oeste 0 -- -- 66
2020-01-12 19:00:00 8.8 3 Oeste 9 Noroeste 0 -- -- 59
2020-01-12 18:00:00 11 6 Norte 15 Norte 0 -- -- 49
2020-01-12 17:00:00 12.4 8 Norte 13 Nordeste 0 -- -- 42
2020-01-12 16:00:00 13 5 Norte 13 Oeste 0 -- -- 42
2020-01-12 15:00:00 12.7 5 Noroeste 13 Noroeste 0 -- -- 49
2020-01-12 14:00:00 12.2 4 Sudoeste 12 Oeste 0 -- -- 53
2020-01-12 13:00:00 10.1 3 Oeste 6 Sudoeste 0 -- -- 73
2020-01-12 12:00:00 6.6 3 Sudoeste 5 Sur 0 -- -- 90
2020-01-12 11:00:00 2.4 3 Noroeste 5 Noroeste 0 -- -- 94
2020-01-12 10:00:00 -1.1 0 Calma 6 Sudoeste 0 -- -- 94
2020-01-12 09:00:00 -2.1 0 Calma 4 Oeste 0 -- -- 93
2020-01-12 08:00:00 -1.9 0 Calma 5 Noroeste 0 -- -- 92
2020-01-12 07:00:00 -1.5 0 Calma 6 Noroeste 0 -- -- 92
2020-01-12 06:00:00 -1.4 2 Oeste 6 Noroeste 0 -- -- 92
2020-01-12 05:00:00 -1 0 Calma 4 Sudoeste 0 -- -- 91
2020-01-12 04:00:00 -0.9 0 Calma 4 Sudoeste 0 -- -- 90
2020-01-12 03:00:00 0 0 Calma 6 Noroeste 0 -- -- 90
2020-01-12 02:00:00 0.4 2 Oeste 5 Noroeste 0 -- -- 88
2020-01-12 01:00:00 0.9 0 Calma 3 Sudoeste 0 -- -- 86
2020-01-12 00:00:00 1.6 0 Calma 4 Noroeste 0 -- -- 84
2020-01-11 23:00:00 2 3 Noroeste 8 Noroeste 0 -- -- 82
2020-01-11 22:00:00 3.6 0 Calma 8 Oeste 0 -- -- 80
2020-01-11 21:00:00 5.3 3 Sudoeste 6 Sudoeste 0 -- -- 76
2020-01-11 20:00:00 6.8 2 Oeste 5 Noroeste 0 -- -- 72
2020-01-11 19:00:00 8.4 4 Sudoeste 12 Este 0 -- -- 68
2020-01-11 18:00:00 10.4 6 Sudeste 14 Sudeste 0 -- -- 60
2020-01-11 17:00:00 11.7 7 Sudeste 17 Este 0 -- -- 56
2020-01-11 16:00:00 11.8 7 Sudeste 18 Sur 0 -- -- 56
2020-01-11 15:00:00 11.8 8 Sudeste 17 Sudeste 0 -- -- 55
2020-01-11 14:00:00 10.3 6 Este 17 Sudeste 0 -- -- 60
2020-01-11 13:00:00 9.5 5 Sur 14 Este 0 -- -- 63
2020-01-11 12:00:00 6.8 8 Sudeste 14 Este 0 -- -- 73
2020-01-11 11:00:00 4.6 6 Sudeste 12 Sudeste 0 -- -- 80
2020-01-11 10:00:00 1.3 0 Calma 6 Sudoeste 0 -- -- 86
2020-01-11 09:00:00 -0.5 4 Sudoeste 7 Sudoeste 0 -- -- 84
2020-01-11 08:00:00 -0.2 0 Calma 8 Sudoeste 0 -- -- 82
2020-01-11 07:00:00 1 4 Noroeste 13 Este 0 -- -- 79
2020-01-11 06:00:00 2.1 4 Noroeste 10 Este 0 -- -- 78
2020-01-11 05:00:00 4.1 4 Sudoeste 18 Norte 0 -- -- 72
2020-01-11 04:00:00 4.9 5 Sudeste 21 Sudeste 0 -- -- 70
2020-01-11 03:00:00 5.3 6 Sudeste 31 Nordeste 0 -- -- 69
2020-01-11 02:00:00 5.9 14 Nordeste 30 Norte 0 -- -- 66
2020-01-11 01:00:00 6.7 13 Nordeste 29 Nordeste 0 -- -- 62
2020-01-11 00:00:00 7.9 15 Nordeste 29 Nordeste 0 -- -- 59
2020-01-10 23:00:00 8 12 Nordeste 30 Nordeste 0 -- -- 58
2020-01-10 22:00:00 7.9 10 Nordeste 30 Nordeste 0 -- -- 57
2020-01-10 21:00:00 7.8 11 Nordeste 22 Nordeste 0 -- -- 59
2020-01-10 20:00:00 8.2 9 Nordeste 19 Norte 0 -- -- 58
2020-01-10 19:00:00 8.8 8 Nordeste 22 Nordeste 0 -- -- 56
2020-01-10 18:00:00 9.8 6 Nordeste 26 Nordeste 0 -- -- 53
2020-01-10 17:00:00 10.6 14 Nordeste 33 Nordeste 0 -- -- 47
2020-01-10 16:00:00 11.1 15 Nordeste 35 Nordeste 0 -- -- 50
2020-01-10 15:00:00 11.1 18 Nordeste 37 Nordeste 0 -- -- 50
2020-01-10 14:00:00 11.1 20 Nordeste 39 Norte 0 -- -- 51
2020-01-10 13:00:00 10.4 15 Nordeste 30 Norte 0 -- -- 60
2020-01-10 12:00:00 9.1 13 Nordeste 32 Nordeste 0 -- -- 65
2020-01-10 11:00:00 8.3 9 Nordeste 30 Nordeste 0 -- -- 71
2020-01-10 10:00:00 7.3 4 Oeste 18 Sudeste 0 -- -- 80
2020-01-10 09:00:00 7.3 5 Norte 19 Norte 0 -- -- 91
2020-01-10 08:00:00 7.2 2 Sur 8 Oeste 0 -- -- 94
2020-01-10 07:00:00 7.2 6 Noroeste 12 Oeste 0 -- -- 93
2020-01-10 06:00:00 7 5 Sudoeste 9 Sudoeste 0 -- -- 92
2020-01-10 05:00:00 6.9 3 Noroeste 6 Oeste 0 -- -- 92
2020-01-10 04:00:00 6.6 3 Noroeste 12 Oeste 0 -- -- 91
2020-01-10 03:00:00 6.3 6 Oeste 12 Oeste 0 -- -- 91
2020-01-10 02:00:00 5.4 5 Noroeste 9 Noroeste 0 -- -- 89
2020-01-10 01:00:00 5.5 4 Oeste 9 Oeste 0 -- -- 86
2020-01-10 00:00:00 5.8 4 Noroeste 8 Noroeste 0 -- -- 84
2020-01-09 23:00:00 6.3 5 Noroeste 10 Oeste 0 -- -- 82
2020-01-09 22:00:00 6.3 5 Noroeste 11 Noroeste 0 -- -- 80
2020-01-09 21:00:00 7 5 Noroeste 10 Noroeste 0 -- -- 77
2020-01-09 20:00:00 7.5 0 Calma 10 Oeste 0 -- -- 74
2020-01-09 19:00:00 9.5 4 Noroeste 9 Oeste 0 -- -- 66
2020-01-09 18:00:00 12.4 7 Oeste 13 Oeste 0 -- -- 62
2020-01-09 17:00:00 13.8 6 Oeste 19 Noroeste 0 -- -- 57
2020-01-09 16:00:00 14 12 Noroeste 21 Norte 0 -- -- 60
2020-01-09 15:00:00 15.5 5 Oeste 16 Oeste 0 -- -- 54
2020-01-09 14:00:00 14.2 5 Noroeste 16 Sudoeste 0 -- -- 55
2020-01-09 13:00:00 12.1 5 Oeste 11 Noroeste 0 -- -- 64
2020-01-09 12:00:00 8.8 3 Sudoeste 6 Sudoeste 0 -- -- 87
2020-01-09 11:00:00 4.7 2 Oeste 6 Noroeste 0 -- -- 94
2020-01-09 10:00:00 0.9 3 Noroeste 5 Noroeste 0 -- -- 93
2020-01-09 09:00:00 0.2 0 Calma 7 Oeste 0 -- -- 92
2020-01-09 08:00:00 0.2 2 Noroeste 5 Noroeste 0 -- -- 92
2020-01-09 07:00:00 0.2 0 Calma 4 Sudoeste 0 -- -- 91
2020-01-09 06:00:00 0.9 0 Calma 6 Noroeste 0 -- -- 91
2020-01-09 05:00:00 1 3 Noroeste 6 Oeste 0 -- -- 90
2020-01-09 04:00:00 1.6 0 Calma 5 Sur 0 -- -- 88
2020-01-09 03:00:00 2.1 2 Oeste 8 Noroeste 0 -- -- 87
2020-01-09 02:00:00 2 0 Calma 8 Sudoeste 0 -- -- 85
2020-01-09 01:00:00 2.9 4 Sudoeste 7 Sudoeste 0 -- -- 84
2020-01-09 00:00:00 3.4 4 Sudoeste 8 Sudoeste 0 -- -- 81
2020-01-08 23:00:00 3.5 4 Noroeste 6 Noroeste 0 -- -- 80
2020-01-08 22:00:00 5.3 3 Norte 6 Noroeste 0 -- -- 77
2020-01-08 21:00:00 6.4 0 Calma 6 Noroeste 0 -- -- 73
2020-01-08 20:00:00 8.4 0 Calma 5 Sudoeste 0 -- -- 65
2020-01-08 19:00:00 11.6 0 Calma 7 Sudoeste 0 -- -- 55
2020-01-08 18:00:00 14.8 3 Sur 15 Este 0 -- -- 45
2020-01-08 17:00:00 16.5 9 Sudeste 15 Sudeste 0 -- -- 40
2020-01-08 16:00:00 17 3 Sur 12 Sur 0 -- -- 45
2020-01-08 15:00:00 15.9 4 Sudeste 14 Sudeste 0 -- -- 45
2020-01-08 14:00:00 14.5 5 Sudoeste 8 Sudoeste 0 -- -- 56
2020-01-08 13:00:00 11.5 4 Sudoeste 6 Sudoeste 0 -- -- 70
2020-01-08 12:00:00 7.3 4 Sudoeste 6 Sudoeste 0 -- -- 88
2020-01-08 11:00:00 3.4 3 Noroeste 5 Noroeste 0 -- -- 96
2020-01-08 10:00:00 -0.1 0 Calma 5 Noroeste 0 -- -- 96
2020-01-08 09:00:00 -1.2 2 Noroeste 6 Sudoeste 0 -- -- 95
2020-01-08 08:00:00 -0.5 0 Calma 7 Noroeste 0 -- -- 94
2020-01-08 07:00:00 -1.1 0 Calma 4 Sudoeste 0 -- -- 94
2020-01-08 06:00:00 -0.4 0 Calma 6 Sudoeste 0 -- -- 94
2020-01-08 05:00:00 -0.2 4 Noroeste 6 Noroeste 0 -- -- 93
2020-01-08 04:00:00 0.3 0 Calma 6 Noroeste 0 -- -- 92
2020-01-08 03:00:00 0.8 2 Noroeste 5 Sudoeste 0 -- -- 92
2020-01-08 02:00:00 1.4 2 Noroeste 8 Noroeste 0 -- -- 91
2020-01-08 01:00:00 1.7 4 Noroeste 6 Oeste 0 -- -- 89
2020-01-08 00:00:00 2.7 2 Noroeste 6 Oeste 0 -- -- 88
2020-01-07 23:00:00 3.3 0 Calma 4 Noroeste 0 -- -- 85
2020-01-07 22:00:00 4.4 0 Calma 6 Noroeste 0 -- -- 83
2020-01-07 21:00:00 5.5 0 Calma 4 Sudoeste 0 -- -- 80
2020-01-07 20:00:00 7.4 0 Calma 5 Sudoeste 0 -- -- 74
2020-01-07 19:00:00 10.2 0 Calma 6 Sur 0 -- -- 63
2020-01-07 18:00:00 14.3 3 Sudeste 7 Sudeste 0 -- -- 46
2020-01-07 17:00:00 16.5 4 Sur 9 Sur 0 -- -- 46
2020-01-07 16:00:00 16.1 3 Sudeste 10 Sudeste 0 -- -- 49
2020-01-07 15:00:00 14.8 4 Sudeste 14 Sudeste 0 -- -- 54
2020-01-07 14:00:00 13 9 Este 14 Este 0 -- -- 60
2020-01-07 13:00:00 11.2 7 Sudeste 11 Este 0 -- -- 73
2020-01-07 12:00:00 7.8 3 Sudoeste 9 Sudoeste 0 -- -- 96
2020-01-07 11:00:00 3.5 4 Sudoeste 8 Sudoeste 0 -- -- 97
2020-01-07 10:00:00 0.2 0 Calma 5 Sudoeste 0 -- -- 96
2020-01-07 09:00:00 -0.9 3 Noroeste 8 Sudoeste 0 -- -- 95
2020-01-07 08:00:00 -0.5 5 Noroeste 6 Noroeste 0 -- -- 95
2020-01-07 07:00:00 -0.3 2 Oeste 5 Noroeste 0 -- -- 94
2020-01-07 06:00:00 -0.4 2 Sudoeste 6 Sudoeste 0 -- -- 93
2020-01-07 05:00:00 -0.2 3 Norte 6 Sudoeste 0 -- -- 93
2020-01-07 04:00:00 0.5 3 Noroeste 5 Sudoeste 0 -- -- 92
2020-01-07 03:00:00 1.1 3 Noroeste 8 Noroeste 0 -- -- 92
2020-01-07 02:00:00 1.8 0 Calma 7 Sudoeste 0 -- -- 91
2020-01-07 01:00:00 2.1 5 Sudoeste 8 Noroeste 0 -- -- 90
2020-01-07 00:00:00 2.4 3 Noroeste 6 Sudoeste 0 -- -- 88
2020-01-06 23:00:00 3.4 4 Noroeste 7 Oeste 0 -- -- 86
2020-01-06 22:00:00 3.7 0 Calma 6 Sudoeste 0 -- -- 84
2020-01-06 21:00:00 5 0 Calma 6 Noroeste 0 -- -- 82
2020-01-06 20:00:00 7.2 2 Oeste 6 Noroeste 0 -- -- 76
2020-01-06 19:00:00 9.8 3 Sudoeste 14 Norte 0 -- -- 69
2020-01-06 18:00:00 12.5 8 Norte 15 Norte 0 -- -- 59
2020-01-06 17:00:00 15.3 6 Sudoeste 10 Noroeste 0 -- -- 53
2020-01-06 16:00:00 14.6 4 Noroeste 10 Noroeste 0 -- -- 47
2020-01-06 15:00:00 13.6 5 Noroeste 11 Oeste 0 -- -- 58
2020-01-06 14:00:00 11.3 6 Sudoeste 10 Sudoeste 0 -- -- 95
2020-01-06 13:00:00 7.4 4 Sudoeste 8 Noroeste 0 -- -- 100
2020-01-06 12:00:00 2.8 3 Noroeste 6 Noroeste 0 -- -- 98
2020-01-06 11:00:00 0.2 3 Noroeste 6 Noroeste 0 -- -- 97
2020-01-06 10:00:00 -1.3 2 Oeste 6 Noroeste 0 -- -- 96